createdAt,value
2018-07-09T00:01:10.463Z,20.67
2018-07-09T00:03:39.402Z,20.62
2018-07-09T00:06:08.310Z,20.54
2018-07-09T00:08:37.576Z,20.51
2018-07-09T00:11:07.565Z,20.54
2018-07-09T00:13:37.805Z,20.53
2018-07-09T00:16:06.745Z,20.47
2018-07-09T00:18:35.917Z,20.38
2018-07-09T00:21:04.924Z,20.27
2018-07-09T00:23:33.625Z,20.21
2018-07-09T00:26:02.714Z,20.12
2018-07-09T00:28:31.709Z,20.04
2018-07-09T00:31:00.616Z,19.98
2018-07-09T00:33:29.577Z,20.04
2018-07-09T00:35:58.426Z,20.02
2018-07-09T00:38:27.684Z,19.98
2018-07-09T00:40:56.615Z,19.93
2018-07-09T00:43:25.639Z,19.91
2018-07-09T00:45:54.441Z,19.83
2018-07-09T00:48:23.565Z,19.79
2018-07-09T00:50:52.620Z,19.75
2018-07-09T00:53:21.624Z,19.59
2018-07-09T00:55:50.528Z,19.61
2018-07-09T00:58:19.617Z,19.57
2018-07-09T01:00:49.009Z,19.58
2018-07-09T01:03:17.956Z,19.53
2018-07-09T01:05:46.821Z,19.50
2018-07-09T01:08:15.887Z,19.49
2018-07-09T01:10:55.722Z,19.44
2018-07-09T01:13:35.648Z,19.40
2018-07-09T01:16:04.486Z,19.33
2018-07-09T01:18:33.827Z,19.24
2018-07-09T01:21:02.724Z,19.16
2018-07-09T01:23:31.521Z,19.14
2018-07-09T01:26:00.961Z,19.18
2018-07-09T01:28:29.940Z,19.16
2018-07-09T01:30:58.838Z,19.08
2018-07-09T01:33:27.748Z,19.05
2018-07-09T01:35:56.826Z,19.05
2018-07-09T01:38:25.767Z,18.99
2018-07-09T01:40:54.481Z,18.88
2018-07-09T01:43:23.531Z,18.81
2018-07-09T01:45:52.428Z,18.73
2018-07-09T01:48:21.286Z,18.70
2018-07-09T01:50:50.177Z,18.72
2018-07-09T01:53:19.105Z,18.62
2018-07-09T01:55:48.521Z,18.66
2018-07-09T01:58:17.255Z,18.64
2018-07-09T02:00:46.067Z,18.58
2018-07-09T02:03:15.031Z,18.55
2018-07-09T02:05:44.368Z,18.47
2018-07-09T02:08:13.212Z,18.46
2018-07-09T02:10:42.170Z,18.45
2018-07-09T02:13:11.174Z,18.40
2018-07-09T02:15:40.093Z,18.40
2018-07-09T02:18:09.058Z,18.42
2018-07-09T02:20:37.788Z,18.43
2018-07-09T02:23:06.649Z,18.38
2018-07-09T02:25:35.582Z,18.33
2018-07-09T02:28:04.456Z,18.29
2018-07-09T02:30:33.669Z,18.21
2018-07-09T02:33:02.627Z,18.16
2018-07-09T02:35:31.534Z,18.14
2018-07-09T02:38:00.329Z,18.10
2018-07-09T02:40:29.319Z,18.03
2018-07-09T02:42:58.234Z,18.01
2018-07-09T02:45:27.088Z,17.91
2018-07-09T02:47:56.214Z,17.85
2018-07-09T02:50:24.976Z,17.90
2018-07-09T02:52:54.232Z,17.94
2018-07-09T02:55:23.187Z,17.82
2018-07-09T02:57:52.303Z,17.80
2018-07-09T03:00:21.285Z,17.82
2018-07-09T03:02:50.198Z,17.84
2018-07-09T03:05:19.378Z,17.76
2018-07-09T03:07:48.134Z,17.75
2018-07-09T03:10:17.077Z,17.74
2018-07-09T03:12:45.982Z,17.78
2018-07-09T03:15:14.939Z,17.68
2018-07-09T03:17:44.043Z,17.64
2018-07-09T03:20:13.216Z,17.61
2018-07-09T03:22:42.231Z,17.63
2018-07-09T03:25:11.145Z,17.53
2018-07-09T03:27:40.007Z,17.52
2018-07-09T03:30:09.007Z,17.51
2018-07-09T03:32:37.947Z,17.53
2018-07-09T03:35:06.827Z,17.54
2018-07-09T03:37:35.564Z,17.56
2018-07-09T03:40:04.395Z,17.55
2018-07-09T03:42:33.364Z,17.56
2018-07-09T03:45:02.397Z,17.55
2018-07-09T03:47:31.452Z,17.54
2018-07-09T03:50:00.183Z,17.59
2018-07-09T03:52:29.331Z,17.59
2018-07-09T03:54:58.217Z,17.56
2018-07-09T03:57:27.097Z,17.61
2018-07-09T03:59:56.152Z,17.66
2018-07-09T04:02:25.023Z,17.69
2018-07-09T04:04:53.939Z,17.68
2018-07-09T04:07:22.910Z,17.73
2018-07-09T04:09:52.205Z,17.72
2018-07-09T04:12:21.116Z,17.85
2018-07-09T04:14:49.873Z,17.70
2018-07-09T04:17:18.859Z,17.73
2018-07-09T04:19:48.092Z,17.76
2018-07-09T04:22:17.164Z,17.75
2018-07-09T04:24:45.965Z,17.74
2018-07-09T04:27:14.761Z,17.84
2018-07-09T04:29:43.570Z,17.94
2018-07-09T04:32:12.707Z,17.99
2018-07-09T04:34:41.696Z,18.08
2018-07-09T04:37:10.560Z,18.16
2018-07-09T04:39:39.476Z,18.26
2018-07-09T04:42:08.593Z,18.26
2018-07-09T04:44:37.463Z,18.30
2018-07-09T04:47:06.909Z,18.24
2018-07-09T04:49:35.761Z,18.31
2018-07-09T04:52:04.985Z,18.36
2018-07-09T04:54:34.262Z,18.35
2018-07-09T04:57:03.310Z,18.33
2018-07-09T04:59:32.333Z,18.39
2018-07-09T05:02:01.504Z,18.51
2018-07-09T05:04:30.252Z,18.51
2018-07-09T05:09:27.638Z,18.57
2018-07-09T05:11:56.794Z,18.60
2018-07-09T05:14:25.489Z,18.78
2018-07-09T05:16:54.409Z,18.81
2018-07-09T05:19:23.336Z,18.75
2018-07-09T05:21:52.255Z,18.79
2018-07-09T05:24:20.999Z,18.85
2018-07-09T05:26:50.248Z,18.96
2018-07-09T05:29:19.301Z,19.04
2018-07-09T05:31:48.655Z,19.12
2018-07-09T05:34:17.795Z,19.20
2018-07-09T05:36:46.650Z,19.24
2018-07-09T05:39:15.609Z,19.29
2018-07-09T05:41:44.744Z,19.30
2018-07-09T05:44:13.876Z,19.44
2018-07-09T05:46:42.959Z,19.57
2018-07-09T05:49:12.653Z,19.60
2018-07-09T05:51:42.242Z,19.77
2018-07-09T05:54:11.246Z,19.97
2018-07-09T05:56:40.459Z,19.99
2018-07-09T05:59:09.280Z,19.99
2018-07-09T06:01:38.141Z,20.22
2018-07-09T06:04:08.009Z,20.42
2018-07-09T06:06:37.153Z,20.62
2018-07-09T06:09:08.212Z,20.77
2018-07-09T06:11:37.477Z,21.01
2018-07-09T06:14:06.905Z,21.22
2018-07-09T06:16:35.700Z,21.35
2018-07-09T06:19:04.530Z,21.44
2018-07-09T06:21:33.381Z,21.36
2018-07-09T06:24:02.442Z,21.35
2018-07-09T06:26:31.303Z,21.40
2018-07-09T06:29:00.118Z,21.45
2018-07-09T06:31:28.983Z,21.47
2018-07-09T06:33:57.812Z,21.41
2018-07-09T06:36:26.766Z,21.52
2018-07-09T06:38:55.662Z,21.52
2018-07-09T06:41:24.664Z,21.58
2018-07-09T06:43:53.514Z,21.47
2018-07-09T06:46:22.418Z,21.66
2018-07-09T06:48:51.495Z,21.82
2018-07-09T06:51:20.270Z,21.87
2018-07-09T06:53:49.539Z,22.15
2018-07-09T06:56:19.806Z,22.10
2018-07-09T06:58:48.745Z,22.36
2018-07-09T07:01:18.012Z,22.42
2018-07-09T07:03:47.243Z,22.54
2018-07-09T07:06:16.211Z,22.60
2018-07-09T07:08:45.233Z,23.00
2018-07-09T07:11:14.421Z,23.11
2018-07-09T07:13:43.661Z,22.89
2018-07-09T07:16:12.361Z,23.30
2018-07-09T07:18:41.494Z,23.18
2018-07-09T07:21:10.382Z,23.10
2018-07-09T07:23:39.638Z,23.10
2018-07-09T07:26:08.636Z,23.41
2018-07-09T07:28:37.541Z,22.96
2018-07-09T07:31:06.480Z,23.08
2018-07-09T07:33:35.447Z,23.16
2018-07-09T07:36:04.598Z,23.78
2018-07-09T07:38:33.446Z,23.64
2018-07-09T07:41:02.309Z,24.06
2018-07-09T07:43:31.203Z,24.38
2018-07-09T07:46:00.163Z,24.20
2018-07-09T07:48:28.996Z,24.16
2018-07-09T07:50:57.778Z,24.37
2018-07-09T07:53:26.651Z,24.40
2018-07-09T07:55:55.874Z,24.62
2018-07-09T07:58:24.652Z,24.59
2018-07-09T08:00:53.605Z,23.77
2018-07-09T08:03:22.521Z,23.70
2018-07-09T08:05:51.411Z,23.97
2018-07-09T08:08:20.282Z,23.82
2018-07-09T08:10:49.261Z,23.99
2018-07-09T08:13:31.214Z,23.81
2018-07-09T08:15:47.206Z,23.99
2018-07-09T08:18:16.296Z,23.44
2018-07-09T08:20:45.249Z,23.50
2018-07-09T08:23:14.043Z,23.36
2018-07-09T08:25:43.303Z,23.01
2018-07-09T08:28:12.132Z,23.17
2018-07-09T08:30:41.013Z,23.52
2018-07-09T08:33:10.033Z,23.69
2018-07-09T08:35:39.105Z,23.92
2018-07-09T08:38:08.123Z,23.59
2018-07-09T08:40:37.144Z,23.68
2018-07-09T08:43:06.283Z,23.40
2018-07-09T08:45:35.089Z,23.82
2018-07-09T08:48:04.416Z,24.10
2018-07-09T08:50:33.305Z,24.43
2018-07-09T08:53:02.267Z,24.72
2018-07-09T08:55:31.097Z,24.49
2018-07-09T08:58:00.362Z,24.18
2018-07-09T09:00:29.384Z,23.92
2018-07-09T09:02:58.400Z,23.84
2018-07-09T09:05:27.265Z,24.21
2018-07-09T09:07:56.185Z,24.08
2018-07-09T09:10:25.487Z,24.06
2018-07-09T09:12:54.353Z,24.51
2018-07-09T09:15:23.251Z,24.46
2018-07-09T09:17:52.074Z,24.60
2018-07-09T09:20:34.236Z,24.79
2018-07-09T09:23:07.149Z,24.49
2018-07-09T09:25:36.464Z,24.27
2018-07-09T09:28:05.661Z,24.44
2018-07-09T09:30:34.956Z,24.43
2018-07-09T09:33:04.162Z,24.53
2018-07-09T09:35:33.469Z,24.36
2018-07-09T09:38:02.921Z,24.74
2018-07-09T09:40:31.870Z,24.47
2018-07-09T09:43:00.913Z,24.62
2018-07-09T09:45:30.209Z,24.69
2018-07-09T09:47:59.266Z,24.80
2018-07-09T09:50:28.500Z,24.88
2018-07-09T09:52:57.587Z,24.82
2018-07-09T09:55:26.427Z,25.00
2018-07-09T09:57:55.450Z,25.18
2018-07-09T10:00:29.398Z,25.16
2018-07-09T10:02:58.587Z,25.05
2018-07-09T10:05:27.379Z,24.99
2018-07-09T10:07:56.360Z,25.29
2018-07-09T10:10:25.263Z,25.23
2018-07-09T10:12:54.132Z,25.54
2018-07-09T10:15:23.273Z,25.57
2018-07-09T10:17:52.607Z,25.64
2018-07-09T10:20:21.435Z,25.73
2018-07-09T10:22:50.468Z,25.90
2018-07-09T10:25:19.422Z,26.02
2018-07-09T10:27:48.673Z,25.78
2018-07-09T10:30:17.962Z,25.52
2018-07-09T10:32:46.795Z,25.55
2018-07-09T10:35:16.141Z,25.92
2018-07-09T10:37:50.784Z,26.09
2018-07-09T10:40:19.738Z,25.86
2018-07-09T10:42:48.671Z,25.45
2018-07-09T10:45:17.577Z,25.77
2018-07-09T10:47:46.565Z,26.22
2018-07-09T10:50:15.593Z,26.63
2018-07-09T10:52:44.517Z,27.01
2018-07-09T10:55:13.754Z,26.91
2018-07-09T10:57:42.683Z,26.67
2018-07-09T11:00:11.578Z,26.72
2018-07-09T11:02:40.678Z,26.32
2018-07-09T11:05:09.743Z,26.63
2018-07-09T11:07:38.700Z,27.04
2018-07-09T11:10:07.813Z,27.05
2018-07-09T11:12:36.756Z,27.04
2018-07-09T11:15:06.018Z,26.92
2018-07-09T11:17:35.012Z,26.71
2018-07-09T11:20:03.883Z,26.73
2018-07-09T11:22:32.876Z,26.31
2018-07-09T11:25:01.988Z,26.49
2018-07-09T11:27:30.856Z,26.56
2018-07-09T11:30:00.024Z,26.61
2018-07-09T11:32:31.114Z,26.44
2018-07-09T11:35:00.894Z,26.32
2018-07-09T11:37:30.420Z,26.55
2018-07-09T11:39:59.511Z,26.49
2018-07-09T11:42:28.607Z,26.23
2018-07-09T11:44:57.486Z,26.29
2018-07-09T11:47:27.085Z,26.74
2018-07-09T11:49:56.113Z,26.99
2018-07-09T11:52:25.093Z,26.76
2018-07-09T11:54:54.017Z,27.00
2018-07-09T11:57:23.208Z,27.14
2018-07-09T11:59:52.147Z,27.53
2018-07-09T12:02:21.335Z,26.52
2018-07-09T12:04:50.295Z,27.58
2018-07-09T12:07:19.409Z,28.02
2018-07-09T12:09:48.440Z,28.14
2018-07-09T12:12:17.935Z,28.73
2018-07-09T12:14:47.073Z,28.25
2018-07-09T12:17:16.083Z,28.20
2018-07-09T12:19:45.152Z,28.21
2018-07-09T12:22:14.069Z,28.22
2018-07-09T12:24:43.798Z,28.97
2018-07-09T12:27:12.965Z,28.63
2018-07-09T12:29:42.039Z,29.53
2018-07-09T12:32:11.145Z,30.24
2018-07-09T12:34:39.914Z,30.65
2018-07-09T12:37:09.197Z,31.71
2018-07-09T12:39:38.369Z,32.25
2018-07-09T12:42:07.329Z,32.15
2018-07-09T12:44:36.345Z,33.24
2018-07-09T12:47:05.526Z,33.21
2018-07-09T12:49:34.591Z,33.51
2018-07-09T12:52:03.386Z,33.67
2018-07-09T12:54:32.294Z,32.89
2018-07-09T12:57:01.471Z,32.61
2018-07-09T12:59:30.498Z,34.14
2018-07-09T13:02:00.155Z,34.69
2018-07-09T13:04:29.047Z,34.43
2018-07-09T13:06:58.468Z,34.37
2018-07-09T13:09:27.506Z,34.32
2018-07-09T13:11:56.400Z,34.74
2018-07-09T13:14:25.428Z,35.11
2018-07-09T13:16:54.339Z,34.95
2018-07-09T13:19:23.325Z,35.44
2018-07-09T13:21:52.421Z,36.44
2018-07-09T13:24:21.337Z,36.03
2018-07-09T13:26:50.320Z,32.69
2018-07-09T13:29:19.529Z,34.93
2018-07-09T13:31:48.515Z,35.29
2018-07-09T13:34:18.429Z,34.26
2018-07-09T13:36:47.447Z,33.38
2018-07-09T13:39:16.749Z,36.02
2018-07-09T13:41:45.710Z,34.58
2018-07-09T13:44:14.843Z,32.57
2018-07-09T13:46:43.709Z,30.42
2018-07-09T13:49:12.530Z,30.09
2018-07-09T13:51:41.681Z,29.14
2018-07-09T13:54:10.487Z,29.19
2018-07-09T13:56:39.715Z,30.81
2018-07-09T13:59:08.565Z,32.24
2018-07-09T14:01:37.467Z,33.10
2018-07-09T14:04:06.914Z,33.24
2018-07-09T14:06:36.278Z,30.86
2018-07-09T14:09:05.970Z,30.49
2018-07-09T14:11:34.889Z,30.51
2018-07-09T14:14:04.216Z,29.70
2018-07-09T14:16:33.110Z,29.32
2018-07-09T14:19:06.370Z,29.28
2018-07-09T14:21:35.306Z,29.27
2018-07-09T14:24:04.385Z,28.88
2018-07-09T14:26:33.393Z,28.22
2018-07-09T14:29:02.229Z,28.17
2018-07-09T14:31:31.458Z,28.23
2018-07-09T14:34:00.362Z,28.25
2018-07-09T14:36:29.611Z,28.52
2018-07-09T14:38:58.615Z,28.32
2018-07-09T14:41:27.591Z,28.30
2018-07-09T14:43:56.443Z,28.51
2018-07-09T14:46:25.217Z,28.23
2018-07-09T14:48:54.103Z,27.85
2018-07-09T14:51:23.164Z,27.90
2018-07-09T14:53:52.578Z,27.83
2018-07-09T14:56:21.579Z,28.26
2018-07-09T14:58:51.602Z,28.61
2018-07-09T15:01:21.042Z,28.72
2018-07-09T15:03:49.871Z,29.03
2018-07-09T15:06:19.011Z,29.08
2018-07-09T15:08:47.897Z,28.73
2018-07-09T15:11:17.274Z,28.12
2018-07-09T15:13:46.040Z,27.92
2018-07-09T15:16:15.046Z,28.35
2018-07-09T15:18:43.938Z,28.32
2018-07-09T15:21:12.984Z,28.70
2018-07-09T15:23:41.934Z,29.15
2018-07-09T15:26:10.728Z,29.19
2018-07-09T15:28:39.667Z,28.69
2018-07-09T15:31:08.732Z,28.13
2018-07-09T15:33:38.131Z,28.12
2018-07-09T15:36:07.142Z,28.26
2018-07-09T15:38:36.171Z,28.33
2018-07-09T15:41:05.046Z,28.84
2018-07-09T15:43:44.934Z,28.97
2018-07-09T15:46:13.876Z,28.39
2018-07-09T15:48:42.681Z,28.33
2018-07-09T15:51:11.883Z,28.92
2018-07-09T15:53:43.940Z,28.62
2018-07-09T15:56:13.207Z,28.27
2018-07-09T15:58:42.058Z,27.91
2018-07-09T16:01:11.051Z,27.84
2018-07-09T16:03:40.167Z,28.40
2018-07-09T16:06:09.141Z,28.68
2018-07-09T16:08:38.170Z,28.19
2018-07-09T16:11:07.251Z,28.26
2018-07-09T16:13:36.258Z,28.04
2018-07-09T16:16:05.853Z,28.15
2018-07-09T16:18:36.145Z,27.98
2018-07-09T16:21:05.079Z,27.95
2018-07-09T16:23:33.842Z,27.71
2018-07-09T16:26:03.144Z,27.52
2018-07-09T16:28:32.227Z,27.35
2018-07-09T16:31:01.418Z,27.67
2018-07-09T16:33:30.500Z,27.96
2018-07-09T16:35:59.633Z,28.50
2018-07-09T16:38:28.742Z,28.44
2018-07-09T16:40:58.034Z,28.59
2018-07-09T16:43:26.953Z,27.92
2018-07-09T16:45:55.846Z,27.57
2018-07-09T16:48:24.729Z,27.64
2018-07-09T16:50:53.733Z,27.97
2018-07-09T16:53:22.654Z,28.10
2018-07-09T16:55:51.524Z,28.09
2018-07-09T16:58:20.602Z,28.13
2018-07-09T17:00:49.638Z,27.77
2018-07-09T17:03:18.653Z,27.68
2018-07-09T17:05:47.629Z,27.37
2018-07-09T17:08:16.490Z,27.41
2018-07-09T17:10:45.510Z,27.51
2018-07-09T17:13:14.514Z,27.79
2018-07-09T17:15:43.374Z,27.94
2018-07-09T17:18:12.468Z,28.32
2018-07-09T17:20:41.345Z,28.59
2018-07-09T17:23:10.131Z,28.88
2018-07-09T17:25:39.298Z,29.16
2018-07-09T17:28:14.773Z,28.94
2018-07-09T17:30:43.646Z,28.59
2018-07-09T17:33:12.518Z,28.74
2018-07-09T17:35:41.449Z,28.55
2018-07-09T17:38:10.701Z,27.93
2018-07-09T17:40:39.698Z,27.77
2018-07-09T17:43:08.563Z,27.57
2018-07-09T17:45:37.536Z,27.23
2018-07-09T17:48:06.447Z,27.44
2018-07-09T17:50:35.262Z,27.58
2018-07-09T17:53:04.263Z,27.19
2018-07-09T17:55:33.274Z,26.77
2018-07-09T17:58:02.598Z,26.86
2018-07-09T18:00:31.826Z,26.63
2018-07-09T18:03:01.046Z,26.43
2018-07-09T18:05:30.127Z,26.06
2018-07-09T18:07:59.147Z,25.80
2018-07-09T18:10:27.926Z,25.76
2018-07-09T18:12:57.052Z,25.87
2018-07-09T18:15:25.999Z,26.10
2018-07-09T18:17:54.932Z,26.27
2018-07-09T18:20:23.872Z,26.85
2018-07-09T18:22:53.017Z,27.05
2018-07-09T18:25:22.253Z,26.48
2018-07-09T18:27:51.390Z,26.32
2018-07-09T18:30:20.883Z,26.00
2018-07-09T18:32:49.777Z,25.75
2018-07-09T18:35:18.828Z,25.64
2018-07-09T18:37:47.832Z,25.53
2018-07-09T18:40:16.699Z,25.29
2018-07-09T18:42:45.986Z,25.07
2018-07-09T18:45:14.914Z,25.13
2018-07-09T18:47:43.758Z,25.00
2018-07-09T18:50:12.643Z,24.97
2018-07-09T18:52:41.362Z,25.00
2018-07-09T18:55:10.405Z,24.84
2018-07-09T18:57:40.614Z,24.62
2018-07-09T19:00:09.524Z,24.55
2018-07-09T19:02:38.473Z,24.49
2018-07-09T19:05:07.401Z,24.35
2018-07-09T19:07:36.402Z,24.31
2018-07-09T19:10:05.344Z,24.20
2018-07-09T19:12:35.502Z,24.18
2018-07-09T19:15:06.150Z,24.13
2018-07-09T19:18:13.322Z,24.13
2018-07-09T19:21:25.661Z,24.06
2018-07-09T19:23:53.706Z,23.95
2018-07-09T19:26:21.478Z,23.92
2018-07-09T19:28:49.197Z,23.93
2018-07-09T19:31:16.879Z,23.86
2018-07-09T19:33:44.548Z,23.83
2018-07-09T19:36:11.981Z,23.78
2018-07-09T19:38:39.669Z,23.79
2018-07-09T19:41:07.732Z,23.65
2018-07-09T19:43:35.470Z,23.68
2018-07-09T19:46:02.948Z,23.72
2018-07-09T19:48:30.410Z,23.68
2018-07-09T19:50:57.958Z,23.66
2018-07-09T19:53:25.492Z,23.54
2018-07-09T19:55:52.965Z,23.62
2018-07-09T19:58:20.464Z,23.46
2018-07-09T20:00:48.102Z,23.50
2018-07-09T20:03:15.517Z,23.44
2018-07-09T20:05:43.108Z,23.42
2018-07-09T20:08:10.602Z,23.34
2018-07-09T20:10:43.175Z,23.28
2018-07-09T20:13:15.934Z,23.35
2018-07-09T20:15:48.619Z,23.27
2018-07-09T20:18:16.071Z,23.27
2018-07-09T20:20:43.485Z,23.16
2018-07-09T20:23:11.132Z,23.08
2018-07-09T20:25:38.966Z,23.07
2018-07-09T20:28:06.654Z,23.06
2018-07-09T20:30:34.081Z,23.00
2018-07-09T20:33:01.522Z,23.08
2018-07-09T20:35:29.055Z,23.00
2018-07-09T20:37:56.518Z,23.01
2018-07-09T20:40:23.984Z,23.04
2018-07-09T20:42:51.438Z,22.97
2018-07-09T20:45:19.241Z,22.99
2018-07-09T20:47:46.728Z,22.88
2018-07-09T20:50:14.139Z,22.91
2018-07-09T20:52:41.589Z,22.93
2018-07-09T20:55:09.063Z,22.87
2018-07-09T20:57:36.733Z,22.82
2018-07-09T21:00:04.339Z,22.80
2018-07-09T21:02:31.742Z,22.81
2018-07-09T21:04:59.359Z,22.74
2018-07-09T21:07:26.745Z,22.72
2018-07-09T21:09:54.245Z,22.69
2018-07-09T21:12:21.702Z,22.53
2018-07-09T21:14:49.093Z,22.70
2018-07-09T21:17:16.594Z,22.50
2018-07-09T21:19:44.178Z,22.47
2018-07-09T21:22:11.941Z,22.39
2018-07-09T21:24:39.322Z,22.36
2018-07-09T21:27:06.814Z,22.28
2018-07-09T21:29:34.238Z,22.27
2018-07-09T21:32:01.742Z,22.11
2018-07-09T21:34:29.181Z,22.03
2018-07-09T21:36:56.663Z,21.99
2018-07-09T21:39:24.202Z,21.86
2018-07-09T21:41:51.768Z,21.84
2018-07-09T21:44:19.272Z,21.79
2018-07-09T21:46:46.928Z,21.88
2018-07-09T21:49:14.399Z,21.82
2018-07-09T21:51:41.799Z,21.73
2018-07-09T21:54:09.243Z,21.68
2018-07-09T21:56:36.671Z,21.65
2018-07-09T21:59:04.318Z,21.64
2018-07-09T22:01:31.869Z,21.58
2018-07-09T22:03:59.364Z,21.55
2018-07-09T22:06:26.807Z,21.55
2018-07-09T22:08:54.244Z,21.57
2018-07-09T22:11:21.829Z,21.50
2018-07-09T22:13:49.420Z,21.54
2018-07-09T22:16:16.994Z,21.41
2018-07-09T22:18:44.688Z,21.40
2018-07-09T22:21:12.091Z,21.36
2018-07-09T22:23:39.706Z,21.35
2018-07-09T22:26:07.104Z,21.32
2018-07-09T22:28:34.681Z,21.37
2018-07-09T22:31:03.517Z,21.31
2018-07-09T22:33:32.431Z,21.29
2018-07-09T22:36:01.330Z,21.36
2018-07-09T22:38:30.210Z,21.24
2018-07-09T22:41:00.106Z,21.29
2018-07-09T22:43:40.010Z,21.42
2018-07-09T22:46:08.717Z,21.41
2018-07-09T22:48:37.685Z,21.32
2018-07-09T22:51:06.709Z,21.32
2018-07-09T22:53:35.398Z,21.33
2018-07-09T22:56:09.246Z,21.34
2018-07-09T22:58:39.458Z,21.32
2018-07-09T23:01:08.351Z,21.33
2018-07-09T23:03:37.215Z,21.36
2018-07-09T23:06:06.106Z,21.34
2018-07-09T23:08:35.031Z,21.35
2018-07-09T23:11:20.802Z,21.37
2018-07-09T23:17:12.266Z,21.30
2018-07-09T23:21:59.044Z,21.24
2018-07-09T23:24:26.933Z,21.06
2018-07-09T23:26:54.974Z,21.07
2018-07-09T23:29:22.661Z,21.06
2018-07-09T23:31:50.295Z,21.00
2018-07-09T23:34:18.289Z,20.98
2018-07-09T23:36:45.735Z,20.90
2018-07-09T23:39:13.497Z,20.97
2018-07-09T23:41:41.090Z,20.95
2018-07-09T23:44:08.561Z,20.97
2018-07-09T23:46:36.014Z,21.18
2018-07-09T23:49:03.558Z,21.14
2018-07-09T23:51:31.013Z,21.12
2018-07-09T23:53:58.537Z,20.71
2018-07-09T23:59:39.885Z,20.80
